Time;durP1;ratioP1;P1;durP2;ratioP2;P2;SDS_P1;SDS_P2;PMS_P1;PMS_P2;Temp;Humidity;BMP_temperature;BMP_pressure;BME280_temperature;BME280_humidity;BME280_pressure;Samples;Min_cycle;Max_cycle;Signal;HPM_P1;HPM_P2
2023/09/12 00:01:44;;;;;;;6.07;3.67;;;27.00;41.00;;;;;;6235760;28;20505;-74
2023/09/12 00:04:45;;;;;;;5.50;3.85;;;27.10;41.20;;;;;;6237659;28;20040;-73
2023/09/12 00:07:46;;;;;;;8.20;3.63;;;27.00;41.20;;;;;;6236140;28;20393;-73
2023/09/12 00:10:46;;;;;;;5.95;4.13;;;26.90;41.30;;;;;;6232873;28;20119;-75
2023/09/12 00:13:47;;;;;;;11.95;4.03;;;26.90;41.40;;;;;;6221372;28;20034;-73
2023/09/12 00:16:48;;;;;;;6.57;4.03;;;26.90;41.50;;;;;;6212688;28;20030;-72
2023/09/12 00:19:49;;;;;;;8.70;4.03;;;26.80;41.50;;;;;;6226076;28;20045;-71
2023/09/12 00:22:50;;;;;;;5.32;3.75;;;26.80;41.60;;;;;;6237051;28;20143;-74
2023/09/12 00:25:51;;;;;;;6.18;3.90;;;26.70;41.70;;;;;;6235402;28;20124;-73
2023/09/12 00:28:52;;;;;;;6.47;3.75;;;26.70;41.90;;;;;;6236830;28;20063;-74
2023/09/12 00:31:53;;;;;;;4.90;3.83;;;26.70;41.90;;;;;;6236926;28;20108;-73
2023/09/12 00:34:54;;;;;;;5.60;4.07;;;26.70;41.80;;;;;;6235358;28;20476;-73
2023/09/12 00:37:55;;;;;;;13.30;3.92;;;26.70;41.90;;;;;;6236654;28;20133;-73
2023/09/12 00:40:56;;;;;;;6.15;3.90;;;26.70;41.90;;;;;;6234624;28;20052;-71
2023/09/12 00:43:58;;;;;;;15.10;4.07;;;26.70;41.90;;;;;;6235054;28;20698;-73
2023/09/12 00:47:01;;;;;;;6.43;4.22;;;26.70;42.00;;;;;;6236085;28;20048;-73
2023/09/12 00:50:05;;;;;;;8.45;4.18;;;26.60;42.20;;;;;;6235086;28;20036;-73
2023/09/12 00:53:06;;;;;;;6.93;3.92;;;26.70;42.20;;;;;;6241792;28;20361;-72
2023/09/12 00:56:07;;;;;;;6.00;3.88;;;26.70;42.20;;;;;;6259298;28;20071;-74
2023/09/12 00:59:10;;;;;;;7.55;3.78;;;26.70;42.10;;;;;;6260010;28;20067;-73
2023/09/12 01:02:12;;;;;;;7.78;4.30;;;26.80;42.10;;;;;;6259785;28;20515;-73
2023/09/12 01:05:16;;;;;;;7.18;4.00;;;26.80;42.10;;;;;;6259677;28;20044;-73
2023/09/12 01:08:17;;;;;;;6.95;4.40;;;26.80;42.20;;;;;;6261126;28;20033;-74
2023/09/12 01:11:20;;;;;;;7.65;4.18;;;26.80;42.30;;;;;;6240778;28;20105;-72
2023/09/12 01:14:20;;;;;;;9.70;4.85;;;26.70;42.50;;;;;;6211749;28;20030;-72
2023/09/12 01:17:22;;;;;;;7.05;4.20;;;26.70;42.70;;;;;;6222199;28;20037;-73
2023/09/12 01:20:29;;;;;;;8.55;4.45;;;26.70;42.80;;;;;;6210481;28;20498;-73
2023/09/12 01:23:49;;;;;;;6.65;4.70;;;26.60;43.00;;;;;;6210529;28;20037;-73
2023/09/12 01:27:10;;;;;;;11.65;4.53;;;26.50;43.40;;;;;;6210171;28;20038;-73
2023/09/12 01:30:11;;;;;;;8.15;4.70;;;26.50;43.80;;;;;;6210036;28;20072;-72
2023/09/12 01:33:13;;;;;;;10.05;4.97;;;26.40;44.10;;;;;;6209924;28;20128;-73
2023/09/12 01:36:13;;;;;;;12.85;4.90;;;26.30;44.40;;;;;;6209819;28;20080;-72
2023/09/12 01:39:14;;;;;;;8.80;4.68;;;26.30;44.60;;;;;;6228812;28;20037;-73
2023/09/12 01:42:20;;;;;;;9.80;4.50;;;26.30;44.80;;;;;;6236031;28;20025;-74
2023/09/12 01:45:21;;;;;;;10.27;4.55;;;26.20;45.00;;;;;;6235460;28;20135;-73
2023/09/12 01:48:33;;;;;;;11.45;4.32;;;26.10;45.30;;;;;;6235875;28;20139;-73
2023/09/12 01:51:34;;;;;;;6.78;4.25;;;26.00;45.70;;;;;;6235510;28;20043;-74
2023/09/12 01:54:36;;;;;;;13.50;4.95;;;26.00;45.80;;;;;;6251390;28;20033;-72
2023/09/12 01:57:38;;;;;;;12.88;4.10;;;25.90;45.90;;;;;;6259140;28;20113;-73
2023/09/12 02:00:40;;;;;;;9.00;4.82;;;25.90;46.00;;;;;;6242538;28;20056;-73
2023/09/12 02:03:41;;;;;;;8.32;4.53;;;25.80;46.10;;;;;;6259511;28;20044;-73
2023/09/12 02:06:42;;;;;;;10.80;4.35;;;25.70;46.20;;;;;;6258889;28;20128;-73
2023/09/12 02:09:43;;;;;;;13.75;5.07;;;25.70;46.20;;;;;;6261748;28;20090;-74
2023/09/12 02:12:44;;;;;;;6.63;4.30;;;25.70;46.40;;;;;;6241415;28;20139;-73
2023/09/12 02:15:44;;;;;;;7.18;4.55;;;25.60;46.50;;;;;;6240192;28;20033;-71
2023/09/12 02:18:45;;;;;;;7.35;4.32;;;25.60;46.70;;;;;;6238582;28;20037;-73
2023/09/12 02:21:46;;;;;;;10.02;4.38;;;25.60;46.80;;;;;;6239982;28;20435;-73
2023/09/12 02:24:47;;;;;;;7.72;4.57;;;25.60;46.80;;;;;;6240117;28;20065;-74
2023/09/12 02:27:48;;;;;;;12.68;4.20;;;25.60;46.70;;;;;;6240121;28;20415;-73
2023/09/12 02:30:49;;;;;;;7.72;4.63;;;25.60;46.70;;;;;;6237994;28;20032;-72
2023/09/12 02:33:50;;;;;;;6.28;4.38;;;25.50;46.50;;;;;;6237636;28;20430;-73
2023/09/12 02:36:51;;;;;;;9.43;5.47;;;25.50;46.60;;;;;;6237903;28;20026;-72
2023/09/12 02:39:52;;;;;;;7.75;4.30;;;25.50;46.60;;;;;;6237635;28;20033;-72
2023/09/12 02:42:53;;;;;;;12.00;4.32;;;25.50;46.60;;;;;;6237837;28;20176;-72
2023/09/12 02:45:54;;;;;;;7.10;4.85;;;25.50;46.60;;;;;;6237307;28;20152;-73
2023/09/12 02:48:55;;;;;;;7.00;4.82;;;25.50;46.50;;;;;;6239061;28;20034;-73
2023/09/12 02:51:56;;;;;;;7.78;4.60;;;25.50;46.60;;;;;;6237424;28;20040;-72
2023/09/12 02:54:57;;;;;;;6.15;4.30;;;25.60;46.60;;;;;;6259566;28;20071;-73
2023/09/12 02:57:58;;;;;;;8.32;4.80;;;25.60;46.50;;;;;;6263771;28;20037;-73
2023/09/12 03:00:59;;;;;;;6.65;4.25;;;25.60;46.60;;;;;;6261906;28;20437;-72
2023/09/12 03:04:00;;;;;;;6.97;4.60;;;25.60;46.70;;;;;;6262446;28;20039;-72
2023/09/12 03:07:01;;;;;;;7.93;4.60;;;25.50;46.70;;;;;;6260629;28;20529;-73
2023/09/12 03:10:03;;;;;;;10.20;4.55;;;25.50;46.80;;;;;;6238517;28;20116;-73
2023/09/12 03:13:03;;;;;;;8.20;4.90;;;25.50;47.00;;;;;;6236906;28;20029;-72
2023/09/12 03:16:04;;;;;;;5.72;4.28;;;25.40;47.10;;;;;;6236800;28;20093;-73
2023/09/12 03:19:05;;;;;;;9.23;4.85;;;25.30;47.20;;;;;;6236742;28;20037;-73
2023/09/12 03:22:07;;;;;;;6.90;4.20;;;25.30;47.30;;;;;;6236649;28;20076;-72
2023/09/12 03:25:07;;;;;;;11.80;4.53;;;25.20;47.30;;;;;;6236759;28;20037;-71
2023/09/12 03:28:08;;;;;;;9.48;4.53;;;25.20;47.40;;;;;;6236589;28;20052;-73
2023/09/12 03:31:12;;;;;;;7.63;5.05;;;25.20;47.50;;;;;;6236250;28;20505;-71
2023/09/12 03:34:13;;;;;;;9.00;4.57;;;25.10;47.60;;;;;;6237093;28;20089;-73
2023/09/12 03:37:14;;;;;;;8.85;4.63;;;25.10;47.60;;;;;;6237092;28;20038;-73
2023/09/12 03:40:15;;;;;;;11.32;4.60;;;25.10;47.60;;;;;;6236842;28;20452;-73
2023/09/12 03:43:16;;;;;;;9.98;4.40;;;25.10;47.50;;;;;;6236857;28;20041;-72
2023/09/12 03:46:17;;;;;;;6.65;4.13;;;25.00;47.40;;;;;;6236528;28;20778;-73
2023/09/12 03:49:18;;;;;;;16.63;4.55;;;24.90;47.40;;;;;;6237107;28;20034;-73
2023/09/12 03:52:19;;;;;;;8.38;4.53;;;24.90;47.40;;;;;;6220315;28;20029;-73
2023/09/12 03:55:20;;;;;;;6.63;4.00;;;24.80;47.30;;;;;;6260173;28;20039;-73
2023/09/12 03:58:21;;;;;;;7.65;4.05;;;24.80;47.30;;;;;;6261333;28;20048;-72
2023/09/12 04:01:22;;;;;;;6.97;3.85;;;24.70;47.70;;;;;;6244532;28;20040;-73
2023/09/12 04:04:23;;;;;;;7.40;4.22;;;24.70;46.90;;;;;;6250233;28;20087;-73
2023/09/12 04:07:24;;;;;;;7.32;4.07;;;24.70;46.80;;;;;;6218557;28;20087;-73
2023/09/12 04:10:24;;;;;;;7.35;4.25;;;24.70;46.80;;;;;;6224805;28;20462;-74
2023/09/12 04:13:26;;;;;;;17.90;4.43;;;24.60;46.70;;;;;;6223945;28;20125;-73
2023/09/12 04:16:27;;;;;;;5.57;3.58;;;24.70;46.70;;;;;;6222848;28;20405;-72
2023/09/12 04:19:28;;;;;;;6.72;3.97;;;24.70;46.70;;;;;;6223598;28;20079;-76
2023/09/12 04:22:28;;;;;;;6.28;3.90;;;24.70;46.70;;;;;;6223511;28;20078;-73
2023/09/12 04:25:30;;;;;;;16.92;4.35;;;24.70;46.80;;;;;;6225268;28;20109;-73
2023/09/12 04:28:31;;;;;;;16.35;5.00;;;24.70;46.90;;;;;;6225074;28;20033;-71
2023/09/12 04:31:32;;;;;;;7.55;4.10;;;24.80;47.00;;;;;;6224971;28;20029;-75
2023/09/12 04:34:33;;;;;;;5.55;3.85;;;24.80;46.90;;;;;;6206608;28;20029;-73
2023/09/12 04:37:35;;;;;;;6.32;3.85;;;24.80;46.90;;;;;;6222111;28;20025;-73
2023/09/12 04:40:39;;;;;;;6.00;3.70;;;24.80;46.70;;;;;;6223961;28;20217;-72
2023/09/12 04:43:40;;;;;;;10.68;3.88;;;24.90;46.50;;;;;;6221601;28;20045;-74
2023/09/12 04:46:41;;;;;;;7.90;3.67;;;24.90;46.30;;;;;;6227762;28;20449;-73
2023/09/12 04:49:44;;;;;;;5.93;4.00;;;24.80;46.20;;;;;;6222204;28;20030;-74
2023/09/12 04:52:45;;;;;;;10.77;4.47;;;24.90;46.00;;;;;;6225994;28;20488;-77
2023/09/12 04:55:46;;;;;;;10.35;4.50;;;24.80;45.90;;;;;;6221646;28;20435;-72
2023/09/12 04:58:48;;;;;;;8.25;4.20;;;24.70;45.80;;;;;;6211316;28;20124;-72
2023/09/12 05:01:49;;;;;;;10.60;4.15;;;24.60;45.90;;;;;;6230515;28;20038;-73
2023/09/12 05:04:50;;;;;;;7.82;4.40;;;24.50;46.00;;;;;;6226641;28;20772;-74
2023/09/12 05:07:53;;;;;;;10.57;4.10;;;24.50;46.10;;;;;;6226212;28;20025;-73
2023/09/12 05:10:54;;;;;;;13.38;4.65;;;24.50;46.10;;;;;;6218169;28;20490;-73
2023/09/12 05:13:55;;;;;;;10.63;4.32;;;24.50;46.10;;;;;;6234390;28;20037;-73
2023/09/12 05:16:56;;;;;;;8.50;4.20;;;24.60;46.10;;;;;;6224762;28;20025;-73
2023/09/12 05:19:57;;;;;;;11.88;4.80;;;24.60;46.10;;;;;;6234125;28;20044;-73
2023/09/12 05:22:58;;;;;;;7.15;4.22;;;24.70;46.20;;;;;;6231052;28;20033;-73
2023/09/12 05:25:59;;;;;;;8.80;4.40;;;24.70;46.40;;;;;;6212761;28;20056;-73
2023/09/12 05:29:00;;;;;;;9.90;4.50;;;24.70;46.20;;;;;;6227401;28;20051;-75
2023/09/12 05:32:01;;;;;;;7.40;5.10;;;24.80;45.90;;;;;;6222678;28;20038;-74
2023/09/12 05:35:03;;;;;;;7.75;4.32;;;24.80;45.80;;;;;;6217542;28;20038;-74
2023/09/12 05:38:03;;;;;;;9.30;4.13;;;24.80;45.70;;;;;;6234209;28;20125;-73
2023/09/12 05:41:04;;;;;;;7.07;3.75;;;24.80;45.60;;;;;;6234488;28;20119;-72
2023/09/12 05:44:05;;;;;;;9.52;4.47;;;24.80;45.60;;;;;;6236618;28;20504;-73
2023/09/12 05:47:06;;;;;;;9.00;4.63;;;24.80;45.60;;;;;;6230403;28;20127;-73
2023/09/12 05:50:07;;;;;;;9.98;4.25;;;24.80;45.60;;;;;;6223421;28;20144;-72
2023/09/12 05:53:08;;;;;;;8.13;4.10;;;24.80;45.70;;;;;;6246611;28;20033;-72
2023/09/12 05:56:10;;;;;;;14.02;5.10;;;24.70;45.80;;;;;;6256869;28;20116;-72
2023/09/12 05:59:11;;;;;;;12.10;5.15;;;24.80;45.90;;;;;;6222593;28;20099;-74
2023/09/12 06:02:12;;;;;;;8.35;4.43;;;24.80;45.80;;;;;;6214905;28;20478;-73
2023/09/12 06:05:14;;;;;;;9.82;4.28;;;24.80;45.90;;;;;;6198616;28;20137;-73
2023/09/12 06:08:15;;;;;;;9.10;4.78;;;24.70;45.90;;;;;;6215193;28;20128;-74
2023/09/12 06:11:16;;;;;;;10.13;4.40;;;24.70;46.00;;;;;;6225888;28;20037;-72
2023/09/12 06:14:17;;;;;;;11.10;5.22;;;24.70;46.20;;;;;;6240968;28;20093;-74
2023/09/12 06:17:17;;;;;;;8.88;4.82;;;24.70;46.20;;;;;;6240948;28;20120;-71
2023/09/12 06:20:18;;;;;;;12.70;4.63;;;24.70;46.40;;;;;;6238693;28;20040;-72
2023/09/12 06:23:19;;;;;;;19.27;5.18;;;24.70;46.50;;;;;;6238525;28;20493;-73
2023/09/12 06:26:20;;;;;;;18.63;5.40;;;24.70;46.50;;;;;;6240520;28;20033;-73
2023/09/12 06:29:20;;;;;;;15.57;5.40;;;24.70;46.60;;;;;;6240520;28;20122;-74
2023/09/12 06:32:21;;;;;;;7.05;4.63;;;24.70;46.60;;;;;;6240664;28;20116;-73
2023/09/12 06:35:22;;;;;;;17.13;5.15;;;24.80;46.70;;;;;;6240648;28;20047;-73
2023/09/12 06:38:24;;;;;;;17.77;5.15;;;24.80;46.80;;;;;;6240405;28;20072;-73
2023/09/12 06:41:26;;;;;;;10.32;4.97;;;24.80;46.90;;;;;;6239750;28;20048;-74
2023/09/12 06:44:27;;;;;;;14.10;5.25;;;24.80;47.00;;;;;;6240374;28;20076;-74
2023/09/12 06:47:28;;;;;;;17.65;5.63;;;24.80;47.20;;;;;;6238451;28;20463;-73
2023/09/12 06:50:29;;;;;;;10.25;4.90;;;24.80;47.30;;;;;;6240228;28;20109;-73
2023/09/12 06:53:30;;;;;;;7.25;5.00;;;24.90;47.50;;;;;;6246508;28;20079;-73
2023/09/12 06:56:30;;;;;;;9.25;4.90;;;24.80;47.50;;;;;;6262523;28;20033;-72
2023/09/12 06:59:31;;;;;;;16.00;4.88;;;24.90;47.70;;;;;;6264375;28;20124;-73
2023/09/12 07:02:32;;;;;;;11.95;4.80;;;24.80;47.60;;;;;;6264171;28;20188;-72
2023/09/12 07:05:36;;;;;;;13.02;5.00;;;24.70;47.10;;;;;;6263992;28;20046;-73
2023/09/12 07:08:37;;;;;;;23.80;5.35;;;24.70;46.90;;;;;;6264555;28;20040;-73
2023/09/12 07:11:38;;;;;;;22.58;4.53;;;24.80;46.80;;;;;;6238742;28;20096;-74
2023/09/12 07:14:38;;;;;;;5.15;3.60;;;24.80;46.60;;;;;;6215491;28;20026;-72
2023/09/12 07:17:39;;;;;;;15.23;4.80;;;24.90;46.50;;;;;;6237551;28;20117;-73
2023/09/12 07:20:40;;;;;;;8.00;4.25;;;25.00;46.40;;;;;;6239091;28;20084;-73
2023/09/12 07:23:41;;;;;;;13.68;3.55;;;25.00;46.20;;;;;;6239162;28;20037;-73
2023/09/12 07:26:42;;;;;;;12.75;4.25;;;25.10;45.90;;;;;;6239622;28;20098;-72
2023/09/12 07:29:42;;;;;;;10.27;3.50;;;25.20;45.80;;;;;;6238948;28;20695;-73
2023/09/12 07:32:44;;;;;;;10.95;3.50;;;25.40;45.30;;;;;;6239158;28;20083;-74
2023/09/12 07:35:46;;;;;;;7.55;3.78;;;25.50;45.10;;;;;;6237681;28;20155;-74
2023/09/12 07:38:48;;;;;;;7.43;3.60;;;25.70;44.70;;;;;;6239158;28;20041;-73
2023/09/12 07:41:49;;;;;;;5.65;3.58;;;25.80;44.20;;;;;;6237302;28;20033;-75
2023/09/12 07:44:50;;;;;;;9.00;3.28;;;25.90;44.00;;;;;;6237824;28;20092;-76
2023/09/12 07:47:51;;;;;;;8.73;3.53;;;25.90;43.80;;;;;;6239134;28;20025;-77
2023/09/12 07:50:52;;;;;;;10.32;3.70;;;25.90;43.60;;;;;;6262004;28;20075;-74
2023/09/12 07:53:52;;;;;;;7.70;3.90;;;25.90;43.50;;;;;;6251090;28;20057;-76
2023/09/12 07:56:53;;;;;;;7.85;3.58;;;25.90;43.40;;;;;;6239471;28;20735;-74
2023/09/12 07:59:54;;;;;;;7.82;3.53;;;25.90;43.30;;;;;;6237678;28;20389;-75
2023/09/12 08:02:55;;;;;;;13.63;3.72;;;26.10;43.20;;;;;;6221426;28;20075;-76
2023/09/12 08:05:57;;;;;;;9.40;3.80;;;26.20;42.80;;;;;;6236887;28;20087;-75
2023/09/12 08:08:58;;;;;;;14.25;3.75;;;26.40;42.60;;;;;;6238656;28;20026;-76
2023/09/12 08:11:59;;;;;;;12.50;3.35;;;26.70;42.20;;;;;;6232867;28;20146;-75
2023/09/12 08:15:00;;;;;;;10.32;3.75;;;26.90;41.80;;;;;;6239759;28;20033;-75
2023/09/12 08:18:01;;;;;;;8.55;3.28;;;27.10;41.50;;;;;;6221293;28;20505;-73
2023/09/12 08:21:02;;;;;;;8.93;3.38;;;27.40;41.10;;;;;;6238121;28;20041;-76
2023/09/12 08:24:03;;;;;;;7.90;3.45;;;27.60;40.50;;;;;;6237461;28;20124;-74
2023/09/12 08:27:04;;;;;;;12.38;3.40;;;28.00;40.20;;;;;;6237003;28;20033;-74
2023/09/12 08:30:05;;;;;;;9.10;3.28;;;28.20;39.60;;;;;;6220441;28;20029;-73
2023/09/12 08:33:06;;;;;;;7.65;2.65;;;28.40;39.10;;;;;;6236907;28;20062;-73
2023/09/12 08:36:08;;;;;;;9.45;2.85;;;28.60;38.60;;;;;;6238149;28;20033;-72
2023/09/12 08:39:14;;;;;;;6.15;3.25;;;28.60;38.30;;;;;;6236656;28;20386;-73
2023/09/12 08:42:16;;;;;;;6.72;3.35;;;28.70;38.10;;;;;;6237675;28;20816;-74
2023/09/12 08:45:18;;;;;;;7.97;3.03;;;28.70;37.80;;;;;;6237339;28;20512;-73
2023/09/12 08:48:21;;;;;;;9.10;2.80;;;28.80;37.50;;;;;;6235889;28;20664;-72
2023/09/12 08:51:25;;;;;;;8.27;3.17;;;28.90;37.30;;;;;;6236766;28;20682;-73
2023/09/12 08:54:26;;;;;;;13.93;3.15;;;29.00;37.10;;;;;;6236654;28;20029;-73
2023/09/12 08:57:27;;;;;;;6.80;2.95;;;29.10;36.80;;;;;;6236827;28;20104;-73
2023/09/12 09:00:29;;;;;;;9.45;2.67;;;29.20;36.50;;;;;;6237303;28;20037;-72
2023/09/12 09:03:30;;;;;;;5.32;3.13;;;29.20;36.30;;;;;;6237562;28;20037;-73
2023/09/12 09:06:35;;;;;;;6.53;3.20;;;29.20;36.20;;;;;;6237243;28;20504;-73
2023/09/12 09:09:35;;;;;;;6.68;3.20;;;29.30;36.10;;;;;;6235779;28;20037;-73
2023/09/12 09:12:39;;;;;;;6.15;2.90;;;29.30;36.00;;;;;;6235040;28;20065;-75
2023/09/12 09:15:43;;;;;;;9.95;3.17;;;29.30;36.20;;;;;;6237045;28;20104;-72
2023/09/12 09:18:50;;;;;;;7.50;2.80;;;29.20;36.20;;;;;;6238191;28;20040;-73
2023/09/12 09:21:51;;;;;;;8.88;2.97;;;29.10;36.30;;;;;;6240225;28;20056;-74
2023/09/12 09:25:11;;;;;;;8.35;3.95;;;29.00;36.40;;;;;;6242038;28;20033;-73
2023/09/12 09:28:19;;;;;;;10.00;3.00;;;29.00;36.60;;;;;;6242299;28;20056;-74
2023/09/12 09:31:21;;;;;;;10.52;2.63;;;29.00;36.50;;;;;;6242187;28;20053;-77
2023/09/12 09:34:27;;;;;;;16.63;3.22;;;29.10;36.40;;;;;;6241110;28;20033;-75
2023/09/12 09:37:28;;;;;;;4.13;3.00;;;29.20;36.30;;;;;;6242031;28;20095;-74
2023/09/12 09:40:29;;;;;;;7.43;2.95;;;29.10;36.20;;;;;;6241341;28;20029;-73
2023/09/12 09:43:31;;;;;;;4.63;3.28;;;29.20;36.30;;;;;;6240294;28;20072;-73
2023/09/12 09:46:33;;;;;;;8.68;2.53;;;29.20;35.90;;;;;;6241813;28;20065;-76
2023/09/12 09:49:34;;;;;;;3.15;2.42;;;29.30;35.70;;;;;;6240343;28;20022;-75
2023/09/12 09:52:35;;;;;;;16.08;2.92;;;29.30;35.60;;;;;;6241599;28;20029;-77
2023/09/12 09:55:36;;;;;;;8.85;2.97;;;29.40;35.70;;;;;;6239312;28;20032;-75
2023/09/12 09:59:03;;;;;;;6.97;2.65;;;29.50;35.30;;;;;;6239401;28;20801;-75
2023/09/12 10:02:11;;;;;;;5.50;2.42;;;29.70;35.00;;;;;;6222471;28;20049;-74
2023/09/12 10:05:14;;;;;;;13.63;2.60;;;29.90;34.70;;;;;;6240454;28;20041;-75
2023/09/12 10:08:17;;;;;;;5.35;2.60;;;30.20;34.40;;;;;;6240711;28;20109;-75
2023/09/12 10:11:20;;;;;;;7.93;3.10;;;30.30;34.10;;;;;;6228545;28;20133;-75
2023/09/12 10:14:23;;;;;;;4.40;2.83;;;30.30;34.00;;;;;;6215844;28;20038;-75
2023/09/12 10:17:30;;;;;;;6.00;2.63;;;30.40;33.60;;;;;;6213873;28;20088;-74
2023/09/12 10:20:45;;;;;;;6.55;2.60;;;30.40;33.40;;;;;;6213875;28;20033;-76
2023/09/12 10:23:50;;;;;;;4.45;2.50;;;30.50;33.20;;;;;;6215929;28;20041;-75
2023/09/12 10:26:52;;;;;;;6.70;2.72;;;30.60;33.00;;;;;;6214107;28;20061;-73
2023/09/12 10:29:53;;;;;;;7.13;2.40;;;30.70;32.70;;;;;;6215187;28;20038;-75
2023/09/12 10:32:55;;;;;;;6.35;2.45;;;30.70;32.50;;;;;;6214055;28;20497;-74
2023/09/12 10:35:58;;;;;;;4.65;3.05;;;30.80;32.80;;;;;;6230179;28;20097;-77
2023/09/12 10:39:00;;;;;;;5.47;2.70;;;30.90;32.10;;;;;;6224055;28;20033;-74
2023/09/12 10:42:04;;;;;;;4.93;2.47;;;31.00;32.00;;;;;;6215759;28;20030;-76
2023/09/12 10:45:08;;;;;;;3.75;2.60;;;31.30;31.90;;;;;;6223740;28;20049;-77
2023/09/12 10:48:11;;;;;;;3.47;2.53;;;31.50;31.40;;;;;;6239949;28;20037;-76
2023/09/12 10:51:13;;;;;;;6.50;2.17;;;31.70;31.20;;;;;;6222138;28;20443;-74
2023/09/12 10:54:25;;;;;;;8.70;3.10;;;31.80;30.90;;;;;;6254729;28;20094;-74
2023/09/12 10:57:27;;;;;;;3.60;2.63;;;31.90;30.80;;;;;;6264887;28;20445;-73
2023/09/12 11:00:28;;;;;;;3.03;2.40;;;31.80;30.80;;;;;;6257309;28;20045;-73
2023/09/12 11:03:29;;;;;;;5.28;2.53;;;31.90;30.70;;;;;;6239833;28;20037;-76
2023/09/12 11:06:30;;;;;;;4.97;2.47;;;32.00;30.50;;;;;;6238996;28;20060;-75
2023/09/12 11:09:31;;;;;;;5.47;2.50;;;32.20;30.40;;;;;;6239881;28;20025;-75
2023/09/12 11:12:35;;;;;;;3.83;2.90;;;32.40;30.30;;;;;;6239805;28;20025;-76
2023/09/12 11:15:39;;;;;;;6.72;3.45;;;32.80;30.20;;;;;;6239986;28;20029;-74
2023/09/12 11:19:19;;;;;;;7.43;2.83;;;33.20;30.00;;;;;;6239515;28;20061;-74
2023/09/12 11:22:24;;;;;;;5.28;2.67;;;33.60;29.50;;;;;;6239337;28;20026;-75
2023/09/12 11:25:26;;;;;;;4.28;2.75;;;33.80;29.20;;;;;;6237467;28;20121;-75
2023/09/12 11:28:29;;;;;;;3.88;2.83;;;34.00;29.00;;;;;;6239748;28;20102;-77
2023/09/12 11:31:30;;;;;;;3.88;2.72;;;34.30;28.90;;;;;;6238547;28;20656;-75
2023/09/12 11:34:41;;;;;;;4.25;2.42;;;34.30;28.70;;;;;;6237294;28;20424;-76
2023/09/12 11:37:50;;;;;;;5.75;2.55;;;34.30;28.50;;;;;;6238723;28;20120;-76
2023/09/12 11:40:50;;;;;;;6.97;2.90;;;34.40;28.30;;;;;;6237895;28;20029;-76
2023/09/12 11:43:52;;;;;;;5.80;2.55;;;34.40;28.30;;;;;;6238481;28;20068;-74
2023/09/12 11:46:54;;;;;;;6.90;2.70;;;34.50;28.20;;;;;;6231198;28;20035;-75
2023/09/12 11:49:55;;;;;;;4.57;2.95;;;34.80;28.20;;;;;;6236722;28;20044;-74
2023/09/12 11:53:05;;;;;;;4.53;3.13;;;35.10;27.90;;;;;;6236435;28;20104;-74
2023/09/12 11:56:06;;;;;;;4.95;3.60;;;35.50;27.70;;;;;;6238553;28;20048;-73
2023/09/12 11:59:08;;;;;;;4.72;3.13;;;35.90;27.30;;;;;;6237382;28;20064;-72
2023/09/12 12:02:09;;;;;;;10.13;4.70;;;36.30;26.90;;;;;;6236885;28;20111;-75
2023/09/12 12:05:10;;;;;;;3.88;3.00;;;36.60;26.50;;;;;;6238378;28;20029;-73
2023/09/12 12:08:12;;;;;;;7.15;2.63;;;36.80;26.30;;;;;;6239251;28;20029;-79
2023/09/12 12:11:12;;;;;;;5.53;2.85;;;37.30;25.90;;;;;;6234956;28;20066;-79
2023/09/12 12:14:15;;;;;;;6.13;2.80;;;37.80;25.50;;;;;;6215938;28;20033;-78
2023/09/12 12:17:16;;;;;;;6.55;2.70;;;38.30;25.10;;;;;;6215724;28;20040;-77
2023/09/12 12:20:17;;;;;;;4.55;2.45;;;38.50;24.60;;;;;;6217335;28;20037;-79
2023/09/12 12:23:18;;;;;;;6.15;2.65;;;38.90;24.30;;;;;;6216937;28;20033;-78
2023/09/12 12:26:19;;;;;;;5.75;3.80;;;39.20;24.00;;;;;;6218103;28;20393;-79
2023/09/12 12:29:22;;;;;;;4.57;2.65;;;39.60;23.70;;;;;;6232608;28;20033;-77
2023/09/12 12:32:23;;;;;;;5.20;2.95;;;40.10;23.20;;;;;;6208105;28;20103;-78
2023/09/12 12:35:24;;;;;;;8.77;2.80;;;40.60;22.80;;;;;;6242021;28;20037;-78
2023/09/12 12:38:25;;;;;;;3.45;2.78;;;41.10;22.50;;;;;;6241084;28;20350;-79
2023/09/12 12:41:28;;;;;;;3.95;2.95;;;41.40;22.10;;;;;;6241110;28;20025;-79
2023/09/12 12:44:40;;;;;;;3.30;2.80;;;41.70;21.90;;;;;;6237614;28;20405;-78
2023/09/12 12:47:41;;;;;;;3.17;2.65;;;41.70;21.70;;;;;;6238409;28;20029;-76
2023/09/12 12:50:42;;;;;;;4.65;2.60;;;42.10;21.60;;;;;;6238901;28;20469;-78
2023/09/12 12:54:03;;;;;;;5.25;3.00;;;42.20;21.20;;;;;;6248708;28;20044;-77
2023/09/12 12:57:04;;;;;;;4.30;3.17;;;41.60;21.50;;;;;;6263887;28;20457;-75
2023/09/12 13:00:14;;;;;;;3.78;2.67;;;40.40;22.40;;;;;;6265091;28;20033;-77
2023/09/12 13:03:15;;;;;;;13.27;2.90;;;39.30;23.30;;;;;;6262536;28;20040;-78
2023/09/12 13:06:18;;;;;;;9.80;2.95;;;38.40;24.10;;;;;;6262970;28;20381;-75
2023/09/12 13:09:19;;;;;;;3.72;2.67;;;37.60;24.80;;;;;;6263324;28;20365;-76
2023/09/12 13:12:20;;;;;;;11.43;3.40;;;37.30;25.30;;;;;;6243741;28;20473;-77
2023/09/12 13:15:21;;;;;;;5.18;3.30;;;37.20;25.40;;;;;;6240119;28;20025;-76
2023/09/12 13:18:22;;;;;;;4.45;3.03;;;37.20;25.40;;;;;;6238468;28;20656;-78
2023/09/12 13:21:23;;;;;;;4.70;3.08;;;37.00;25.60;;;;;;6239319;28;20029;-78
2023/09/12 13:24:23;;;;;;;5.00;2.88;;;36.80;25.90;;;;;;6238677;28;20037;-75
2023/09/12 13:27:24;;;;;;;4.60;2.90;;;36.60;26.30;;;;;;6238861;28;20030;-76
2023/09/12 13:30:25;;;;;;;6.05;3.13;;;36.40;26.60;;;;;;6238627;28;20460;-77
2023/09/12 13:33:26;;;;;;;9.55;3.67;;;36.10;27.00;;;;;;6239053;28;20117;-78
2023/09/12 13:36:27;;;;;;;8.15;2.95;;;35.70;27.50;;;;;;6236611;28;20237;-78
2023/09/12 13:39:27;;;;;;;5.00;2.78;;;35.30;28.00;;;;;;6237621;28;20042;-71
2023/09/12 13:42:30;;;;;;;12.07;3.20;;;35.00;28.40;;;;;;6235948;28;20038;-74
2023/09/12 13:45:32;;;;;;;4.82;3.13;;;34.70;28.60;;;;;;6235692;28;20481;-74
2023/09/12 13:48:34;;;;;;;5.10;3.60;;;34.50;28.80;;;;;;6237496;28;20029;-73
2023/09/12 13:51:35;;;;;;;6.55;3.08;;;34.50;29.00;;;;;;6237726;28;20029;-79
2023/09/12 13:54:36;;;;;;;8.18;3.20;;;34.30;29.00;;;;;;6253579;28;20476;-79
2023/09/12 13:57:37;;;;;;;6.40;2.80;;;34.30;29.20;;;;;;6260574;28;20087;-73
2023/09/12 14:00:38;;;;;;;5.25;3.17;;;34.20;29.40;;;;;;6261654;28;20060;-73
2023/09/12 14:03:39;;;;;;;3.42;2.47;;;34.00;29.70;;;;;;6261466;28;20699;-76
2023/09/12 14:06:40;;;;;;;3.63;2.85;;;33.90;29.90;;;;;;6266166;28;20075;-74
2023/09/12 14:09:41;;;;;;;7.20;2.90;;;33.70;30.10;;;;;;6264850;28;20035;-72
2023/09/12 14:12:41;;;;;;;5.00;2.90;;;33.60;30.50;;;;;;6223330;28;20735;-74
2023/09/12 14:15:42;;;;;;;5.32;2.92;;;33.50;30.60;;;;;;6217386;28;20096;-75
2023/09/12 14:18:43;;;;;;;5.50;3.40;;;33.50;30.80;;;;;;6218670;28;20029;-79
2023/09/12 14:21:44;;;;;;;16.52;3.55;;;33.40;30.80;;;;;;6225612;28;20124;-77
2023/09/12 14:24:45;;;;;;;9.40;2.90;;;33.40;31.00;;;;;;6228162;28;20026;-77
2023/09/12 14:27:46;;;;;;;6.28;3.15;;;33.40;31.20;;;;;;6227352;28;20381;-80
2023/09/12 14:30:48;;;;;;;4.38;3.13;;;33.30;31.50;;;;;;6229853;28;20079;-78
2023/09/12 14:33:50;;;;;;;16.05;3.05;;;33.20;31.70;;;;;;6239161;28;20037;-78
2023/09/12 14:36:50;;;;;;;7.95;3.40;;;33.10;32.20;;;;;;6240198;28;20133;-78
2023/09/12 14:39:51;;;;;;;4.68;2.55;;;33.00;32.60;;;;;;6229749;28;20025;-79
2023/09/12 14:42:53;;;;;;;6.78;3.10;;;32.90;32.80;;;;;;6229010;28;20039;-79
2023/09/12 14:45:57;;;;;;;11.48;3.17;;;32.90;32.90;;;;;;6228658;28;20029;-80
2023/09/12 14:48:58;;;;;;;12.55;3.08;;;33.00;33.20;;;;;;6219683;28;20040;-79
2023/09/12 14:51:59;;;;;;;15.52;3.47;;;32.90;33.50;;;;;;6215966;28;20156;-78
2023/09/12 14:55:00;;;;;;;4.88;3.42;;;32.90;33.60;;;;;;6233406;28;20043;-79
2023/09/12 14:58:01;;;;;;;9.32;3.40;;;32.80;33.90;;;;;;6237026;28;20028;-80
2023/09/12 15:01:02;;;;;;;5.00;2.97;;;32.70;34.10;;;;;;6231191;28;20052;-77
2023/09/12 15:04:03;;;;;;;6.45;3.00;;;32.60;34.10;;;;;;6233031;28;20029;-79
2023/09/12 15:07:04;;;;;;;5.82;3.47;;;32.60;34.20;;;;;;6228002;28;20120;-80
2023/09/12 15:10:05;;;;;;;5.35;3.38;;;32.70;34.30;;;;;;6223030;28;20025;-79
2023/09/12 15:13:06;;;;;;;4.20;3.13;;;32.80;34.30;;;;;;6227817;28;20032;-79
2023/09/12 15:16:07;;;;;;;4.60;3.05;;;32.90;34.40;;;;;;6227249;28;20026;-78
2023/09/12 15:19:08;;;;;;;8.88;3.38;;;32.80;34.50;;;;;;6231938;28;20057;-77
2023/09/12 15:22:09;;;;;;;12.00;3.20;;;32.70;34.80;;;;;;6225606;28;20041;-78
2023/09/12 15:25:10;;;;;;;7.03;3.25;;;32.60;34.90;;;;;;6224815;28;20048;-78
2023/09/12 15:28:11;;;;;;;5.32;3.38;;;32.50;35.00;;;;;;6228950;28;20141;-78
2023/09/12 15:31:11;;;;;;;5.63;3.33;;;32.50;35.30;;;;;;6224294;28;20115;-78
2023/09/12 15:34:15;;;;;;;5.47;3.92;;;32.30;35.70;;;;;;6201484;28;20363;-78
2023/09/12 15:37:16;;;;;;;4.72;3.33;;;32.20;36.10;;;;;;6214119;28;20119;-79
2023/09/12 15:40:17;;;;;;;8.65;4.15;;;32.00;36.30;;;;;;6197259;28;20057;-78
2023/09/12 15:43:18;;;;;;;6.60;3.63;;;31.80;36.50;;;;;;6226385;28;20105;-78
2023/09/12 15:46:19;;;;;;;5.55;3.42;;;31.70;36.80;;;;;;6226154;28;20030;-77